createdAt,value
2018-07-07T00:02:25.390Z,21.40
2018-07-07T00:06:08.187Z,21.30
2018-07-07T00:08:48.346Z,21.40
2018-07-07T00:11:34.371Z,21.40
2018-07-07T00:14:13.573Z,21.30
2018-07-07T00:16:53.647Z,21.20
2018-07-07T00:19:36.346Z,21.10
2018-07-07T00:24:54.168Z,21.10
2018-07-07T00:27:24.677Z,21.00
2018-07-07T00:29:59.606Z,20.90
2018-07-07T00:35:18.903Z,20.80
2018-07-07T00:37:57.171Z,20.90
2018-07-07T00:43:20.804Z,20.80
2018-07-07T00:46:08.898Z,20.80
2018-07-07T00:48:41.807Z,20.70
2018-07-07T00:51:16.329Z,20.80
2018-07-07T00:53:51.708Z,20.70
2018-07-07T00:56:28.195Z,20.60
2018-07-07T00:59:05.393Z,20.50
2018-07-07T01:01:42.064Z,20.50
2018-07-07T01:04:15.542Z,20.40
2018-07-07T01:06:50.270Z,20.40
2018-07-07T01:09:26.992Z,20.40
2018-07-07T01:12:08.192Z,20.30
2018-07-07T01:14:48.912Z,20.30
2018-07-07T01:17:22.652Z,20.40
2018-07-07T01:19:55.703Z,20.10
2018-07-07T01:22:27.471Z,20.10
2018-07-07T01:24:58.300Z,20.10
2018-07-07T01:27:33.653Z,20.10
2018-07-07T01:32:59.223Z,20.00
2018-07-07T01:35:32.740Z,20.20
2018-07-07T01:38:04.349Z,20.20
2018-07-07T01:40:36.316Z,20.30
2018-07-07T01:45:52.538Z,20.30
2018-07-07T01:48:24.208Z,20.50
2018-07-07T01:50:56.445Z,20.40
2018-07-07T01:53:29.305Z,20.30
2018-07-07T01:55:59.909Z,20.30
2018-07-07T01:58:32.252Z,20.30
2018-07-07T02:01:04.969Z,20.50
2018-07-07T02:03:43.959Z,20.50
2018-07-07T02:06:23.178Z,20.50
2018-07-07T02:08:53.280Z,20.30
2018-07-07T02:11:32.945Z,20.30
2018-07-07T02:14:05.062Z,20.30
2018-07-07T02:16:42.241Z,20.50
2018-07-07T02:19:13.127Z,20.60
2018-07-07T02:21:48.389Z,20.70
2018-07-07T02:24:24.029Z,20.60
2018-07-07T02:26:55.688Z,20.60
2018-07-07T02:29:31.288Z,20.70
2018-07-07T02:32:04.342Z,20.70
2018-07-07T02:34:38.332Z,20.70
2018-07-07T02:37:14.028Z,20.70
2018-07-07T02:39:56.208Z,20.70
2018-07-07T02:42:29.369Z,20.70
2018-07-07T02:45:06.360Z,20.60
2018-07-07T02:47:45.278Z,20.50
2018-07-07T02:52:55.453Z,20.30
2018-07-07T02:55:31.204Z,20.30
2018-07-07T02:58:02.173Z,20.30
2018-07-07T03:00:37.429Z,20.10
2018-07-07T03:03:09.008Z,20.10
2018-07-07T03:05:41.859Z,20.10
2018-07-07T03:08:17.210Z,20.10
2018-07-07T03:10:49.190Z,20.00
2018-07-07T03:13:26.667Z,19.90
2018-07-07T03:16:03.561Z,19.70
2018-07-07T03:18:41.114Z,19.50
2018-07-07T03:21:15.961Z,19.40
2018-07-07T03:23:47.933Z,19.40
2018-07-07T03:26:21.730Z,19.30
2018-07-07T03:28:51.791Z,19.40
2018-07-07T03:31:25.303Z,19.50
2018-07-07T03:36:31.690Z,19.50
2018-07-07T03:39:04.308Z,19.40
2018-07-07T03:41:40.656Z,19.30
2018-07-07T03:44:12.225Z,19.30
2018-07-07T03:46:46.702Z,19.30
2018-07-07T03:49:25.840Z,19.30
2018-07-07T03:51:57.168Z,19.20
2018-07-07T03:54:31.759Z,19.20
2018-07-07T03:57:03.420Z,19.30
2018-07-07T03:59:43.450Z,19.50
2018-07-07T04:02:20.493Z,19.50
2018-07-07T04:04:53.309Z,19.60
2018-07-07T04:07:28.689Z,19.60
2018-07-07T04:09:59.620Z,19.80
2018-07-07T04:12:31.837Z,19.80
2018-07-07T04:15:06.495Z,20.00
2018-07-07T04:17:44.013Z,20.00
2018-07-07T04:20:22.810Z,19.90
2018-07-07T04:22:59.614Z,20.10
2018-07-07T04:25:32.521Z,20.70
2018-07-07T04:28:07.206Z,21.30
2018-07-07T04:30:39.621Z,22.10
2018-07-07T04:33:11.858Z,22.60
2018-07-07T04:35:49.232Z,22.70
2018-07-07T04:38:21.790Z,22.70
2018-07-07T04:40:59.024Z,23.10
2018-07-07T04:43:42.831Z,23.40
2018-07-07T04:46:19.044Z,23.60
2018-07-07T04:48:52.002Z,23.60
2018-07-07T04:51:24.663Z,24.30
2018-07-07T04:53:58.807Z,24.30
2018-07-07T04:59:19.432Z,25.30
2018-07-07T05:01:56.786Z,25.80
2018-07-07T05:04:37.559Z,26.10
2018-07-07T05:07:23.783Z,26.90
2018-07-07T05:09:57.634Z,27.20
2018-07-07T05:12:38.891Z,27.10
2018-07-07T05:15:32.560Z,27.40
2018-07-07T05:20:53.507Z,28.60
2018-07-07T05:23:33.382Z,28.80
2018-07-07T05:26:13.033Z,28.60
2018-07-07T05:30:04.873Z,28.70
2018-07-07T05:32:44.310Z,28.90
2018-07-07T05:35:20.570Z,29.80
2018-07-07T05:37:52.090Z,29.80
2018-07-07T05:40:31.602Z,29.60
2018-07-07T05:43:24.343Z,29.60
2018-07-07T05:46:24.541Z,30.00
2018-07-07T05:49:13.819Z,30.80
2018-07-07T05:51:52.312Z,31.20
2018-07-07T05:54:32.699Z,31.20
2018-07-07T05:57:15.603Z,31.20
2018-07-07T05:59:51.633Z,31.80
2018-07-07T06:05:15.651Z,32.10
2018-07-07T06:07:54.656Z,32.60
2018-07-07T06:10:38.675Z,32.60
2018-07-07T06:13:37.233Z,33.10
2018-07-07T06:17:20.541Z,33.10
2018-07-07T06:21:22.193Z,32.70
2018-07-07T06:27:06.342Z,33.00
2018-07-07T06:33:14.329Z,33.70
2018-07-07T06:36:02.110Z,33.80
2018-07-07T06:38:36.125Z,33.50
2018-07-07T06:49:32.137Z,33.80
2018-07-07T06:52:06.041Z,34.50
2018-07-07T06:54:43.190Z,34.90
2018-07-07T06:57:14.584Z,35.40
2018-07-07T07:00:17.448Z,35.50
2018-07-07T07:03:00.932Z,35.70
2018-07-07T07:08:42.731Z,35.80
2018-07-07T07:11:30.712Z,36.00
2018-07-07T07:21:13.175Z,36.70
2018-07-07T07:27:38.301Z,36.60
2018-07-07T07:30:44.724Z,36.30
2018-07-07T07:34:48.918Z,35.20
2018-07-07T07:37:39.446Z,35.30
2018-07-07T07:40:31.214Z,34.90
2018-07-07T07:43:19.719Z,34.80
2018-07-07T07:46:38.188Z,34.70
2018-07-07T07:49:23.484Z,34.90
2018-07-07T07:52:07.939Z,35.20
2018-07-07T07:55:07.906Z,35.10
2018-07-07T07:58:02.554Z,35.60
2018-07-07T08:00:59.035Z,36.20
2018-07-07T08:07:54.339Z,36.20
2018-07-07T08:10:44.774Z,36.40
2018-07-07T08:16:49.235Z,37.30
2018-07-07T08:19:32.234Z,37.00
2018-07-07T08:30:56.668Z,37.20
2018-07-07T08:46:59.565Z,36.50
2018-07-07T08:53:09.777Z,36.70
2018-07-07T09:07:38.107Z,36.90
2018-07-07T09:13:48.205Z,36.70
2018-07-07T09:16:51.978Z,36.70
2018-07-07T09:26:07.342Z,35.30
2018-07-07T09:28:57.886Z,36.00
2018-07-07T09:32:00.160Z,35.90
2018-07-07T09:35:00.859Z,36.60
2018-07-07T09:58:21.344Z,36.70
2018-07-07T10:01:48.712Z,36.90
2018-07-07T10:05:11.272Z,36.80
2018-07-07T10:11:14.454Z,36.90
2018-07-07T10:14:09.326Z,36.70
2018-07-07T10:25:25.325Z,35.40
2018-07-07T10:34:23.386Z,34.80
2018-07-07T11:00:46.326Z,33.70
2018-07-07T11:13:05.942Z,33.10
2018-07-07T11:16:10.523Z,33.10
2018-07-07T11:30:02.122Z,32.70
2018-07-07T11:35:53.930Z,32.60
2018-07-07T11:52:14.976Z,31.80
2018-07-07T11:55:17.200Z,31.80
2018-07-07T12:04:21.071Z,31.10
2018-07-07T12:10:30.446Z,31.00
2018-07-07T12:23:53.001Z,31.30
2018-07-07T12:40:03.161Z,31.00
2018-07-07T12:42:51.320Z,30.90
2018-07-07T12:45:29.952Z,30.80
2018-07-07T12:48:55.502Z,30.20
2018-07-07T12:51:34.737Z,29.90
2018-07-07T12:54:17.933Z,30.30
2018-07-07T13:00:40.118Z,29.90
2018-07-07T13:18:18.038Z,29.90
2018-07-07T13:27:11.204Z,29.70
2018-07-07T13:30:11.119Z,29.50
2018-07-07T13:33:01.018Z,29.60
2018-07-07T13:39:01.435Z,29.50
2018-07-07T13:53:40.403Z,29.90
2018-07-07T13:56:40.407Z,29.60
2018-07-07T13:59:41.725Z,29.50
2018-07-07T14:09:04.779Z,29.40
2018-07-07T14:14:59.119Z,28.90
2018-07-07T14:20:58.724Z,28.90
2018-07-07T23:29:57.380Z,29.00
2018-07-07T23:32:34.212Z,20.20
2018-07-07T23:35:24.737Z,20.00
2018-07-07T23:38:15.954Z,19.90
